createdAt,value
2022-09-20T00:01:13.170Z,20.38
2022-09-20T00:03:43.696Z,20.38
2022-09-20T00:06:13.064Z,20.40
2022-09-20T00:08:43.523Z,20.41
2022-09-20T00:11:14.171Z,20.45
2022-09-20T00:13:42.573Z,20.43
2022-09-20T00:16:11.636Z,20.40
2022-09-20T00:18:39.727Z,20.32
2022-09-20T00:21:07.860Z,20.36
2022-09-20T00:23:36.508Z,20.34
2022-09-20T00:26:06.168Z,20.23
2022-09-20T00:28:34.611Z,20.24
2022-09-20T00:31:02.621Z,20.13
2022-09-20T00:33:44.571Z,20.18
2022-09-20T00:36:12.583Z,20.20
2022-09-20T00:38:40.603Z,20.18
2022-09-20T00:41:10.222Z,20.07
2022-09-20T00:43:39.363Z,20.15
2022-09-20T00:46:07.868Z,20.08
2022-09-20T00:48:35.965Z,20.10
2022-09-20T00:51:05.862Z,20.08
2022-09-20T00:53:35.068Z,19.95
2022-09-20T00:56:05.348Z,20.05
2022-09-20T00:58:36.772Z,19.99
2022-09-20T01:01:04.994Z,19.89
2022-09-20T01:03:33.320Z,19.80
2022-09-20T01:06:01.632Z,19.72
2022-09-20T01:08:29.635Z,19.66
2022-09-20T01:10:57.661Z,19.60
2022-09-20T01:13:25.686Z,19.56
2022-09-20T01:15:55.105Z,19.51
2022-09-20T01:18:23.160Z,19.39
2022-09-20T01:20:51.186Z,19.35
2022-09-20T01:23:31.536Z,19.27
2022-09-20T01:26:32.098Z,19.18
2022-09-20T01:29:04.540Z,19.10
2022-09-20T01:31:34.699Z,19.01
2022-09-20T01:34:03.878Z,19.00
2022-09-20T01:36:35.082Z,18.94
2022-09-20T01:39:07.453Z,18.91
2022-09-20T01:41:37.154Z,18.84
2022-09-20T01:44:08.661Z,18.74
2022-09-20T01:46:37.270Z,18.76
2022-09-20T01:49:14.971Z,18.72
2022-09-20T01:52:11.163Z,18.68
2022-09-20T01:55:08.949Z,18.61
2022-09-20T01:57:57.997Z,18.46
2022-09-20T02:00:27.490Z,18.46
2022-09-20T02:03:20.402Z,18.42
2022-09-20T02:06:14.471Z,18.34
2022-09-20T02:09:05.487Z,18.18
2022-09-20T02:11:40.840Z,18.10
2022-09-20T02:14:26.972Z,18.17
2022-09-20T02:16:57.410Z,18.14
2022-09-20T02:20:04.098Z,18.13
2022-09-20T02:22:54.276Z,18.09
2022-09-20T02:25:32.630Z,18.03
2022-09-20T02:28:07.377Z,17.93
2022-09-20T02:30:40.585Z,18.03
2022-09-20T02:33:16.892Z,18.00
2022-09-20T02:35:52.962Z,17.96
2022-09-20T02:38:43.065Z,17.95
2022-09-20T02:41:43.168Z,17.90
2022-09-20T02:44:16.592Z,17.78
2022-09-20T02:46:47.981Z,17.80
2022-09-20T02:49:20.257Z,17.78
2022-09-20T02:51:51.918Z,17.75
2022-09-20T02:54:24.191Z,17.73
2022-09-20T02:56:55.637Z,17.69
2022-09-20T02:59:28.793Z,17.44
2022-09-20T03:02:02.004Z,17.52
2022-09-20T03:04:37.139Z,17.36
2022-09-20T03:07:07.096Z,17.41
2022-09-20T03:09:36.473Z,17.36
2022-09-20T03:12:11.210Z,17.36
2022-09-20T03:14:41.778Z,17.37
2022-09-20T03:17:17.286Z,17.21
2022-09-20T03:20:06.041Z,17.26
2022-09-20T03:22:40.453Z,17.28
2022-09-20T03:25:35.282Z,17.28
2022-09-20T03:28:11.135Z,17.25
2022-09-20T03:30:47.103Z,17.24
2022-09-20T03:33:17.985Z,17.17
2022-09-20T03:35:54.289Z,17.06
2022-09-20T03:38:31.963Z,17.04
2022-09-20T03:41:07.697Z,17.03
2022-09-20T03:43:43.837Z,17.00
2022-09-20T03:46:18.650Z,16.92
2022-09-20T03:49:20.802Z,16.96
2022-09-20T03:51:55.767Z,16.83
2022-09-20T03:54:55.127Z,16.89
2022-09-20T03:58:03.154Z,16.87
2022-09-20T04:00:39.712Z,16.79
2022-09-20T04:03:18.911Z,16.78
2022-09-20T04:05:53.550Z,16.74
2022-09-20T04:08:35.673Z,16.74
2022-09-20T04:11:08.239Z,16.72
2022-09-20T04:13:37.959Z,16.69
2022-09-20T04:16:22.442Z,16.67
2022-09-20T04:18:53.075Z,16.61
2022-09-20T04:21:23.884Z,16.52
2022-09-20T04:23:56.517Z,16.50
2022-09-20T04:26:27.273Z,16.40
2022-09-20T04:28:56.989Z,16.40
2022-09-20T04:31:32.984Z,16.35
2022-09-20T04:34:01.118Z,16.12
2022-09-20T04:36:36.707Z,16.30
2022-09-20T04:39:12.983Z,16.26
2022-09-20T04:42:21.932Z,16.23
2022-09-20T04:45:07.939Z,16.14
2022-09-20T04:47:49.758Z,16.11
2022-09-20T04:50:30.093Z,16.02
2022-09-20T04:53:22.830Z,16.06
2022-09-20T04:55:55.718Z,15.94
2022-09-20T04:58:42.277Z,15.96
2022-09-20T05:02:10.237Z,15.91
2022-09-20T05:05:11.765Z,15.90
2022-09-20T05:08:09.899Z,15.91
2022-09-20T05:11:04.351Z,15.92
2022-09-20T05:13:38.356Z,15.78
2022-09-20T05:16:07.243Z,15.84
2022-09-20T05:19:10.435Z,15.83
2022-09-20T05:21:59.688Z,15.77
2022-09-20T05:24:44.183Z,15.77
2022-09-20T05:27:22.321Z,15.78
2022-09-20T05:29:52.675Z,15.76
2022-09-20T05:32:24.658Z,15.76
2022-09-20T05:34:54.385Z,15.70
2022-09-20T05:37:30.247Z,15.64
2022-09-20T05:40:01.002Z,15.63
2022-09-20T05:42:37.514Z,15.76
2022-09-20T05:45:14.561Z,15.80
2022-09-20T05:47:46.694Z,15.82
2022-09-20T05:50:33.229Z,15.82
2022-09-20T05:53:07.067Z,15.81
2022-09-20T05:55:47.867Z,15.79
2022-09-20T05:58:28.690Z,15.76
2022-09-20T06:00:59.081Z,15.59
2022-09-20T06:03:31.713Z,15.63
2022-09-20T06:06:03.681Z,15.53
2022-09-20T06:08:50.226Z,15.63
2022-09-20T06:11:51.119Z,15.59
2022-09-20T06:14:27.588Z,15.58
2022-09-20T06:17:03.806Z,15.51
2022-09-20T06:19:36.053Z,15.59
2022-09-20T06:22:05.656Z,15.60
2022-09-20T06:24:37.314Z,15.50
2022-09-20T06:27:08.693Z,15.60
2022-09-20T06:29:39.436Z,15.54
2022-09-20T06:32:08.276Z,15.58
2022-09-20T06:34:36.506Z,15.63
2022-09-20T06:37:28.741Z,15.67
2022-09-20T06:40:17.612Z,15.74
2022-09-20T06:42:45.737Z,15.78
2022-09-20T06:45:15.514Z,15.80
2022-09-20T06:47:43.599Z,15.88
2022-09-20T06:50:16.465Z,15.86
2022-09-20T06:52:44.987Z,16.00
2022-09-20T06:55:13.016Z,15.91
2022-09-20T06:57:41.007Z,16.08
2022-09-20T07:00:12.391Z,16.11
2022-09-20T07:02:41.833Z,16.19
2022-09-20T07:05:14.850Z,16.20
2022-09-20T07:07:44.033Z,16.29
2022-09-20T07:10:12.310Z,16.35
2022-09-20T07:12:40.341Z,16.41
2022-09-20T07:15:09.306Z,16.48
2022-09-20T07:17:37.332Z,16.51
2022-09-20T07:20:07.671Z,16.53
2022-09-20T07:22:35.942Z,16.56
2022-09-20T07:25:03.947Z,16.60
2022-09-20T07:27:31.953Z,16.67
2022-09-20T07:30:00.045Z,16.72
2022-09-20T07:32:28.192Z,16.78
2022-09-20T07:34:56.223Z,16.90
2022-09-20T07:37:25.639Z,17.00
2022-09-20T07:39:53.642Z,17.11
2022-09-20T07:42:21.875Z,17.25
2022-09-20T07:44:51.062Z,17.41
2022-09-20T07:47:21.518Z,17.55
2022-09-20T07:49:50.698Z,17.69
2022-09-20T07:52:18.900Z,17.87
2022-09-20T07:54:49.995Z,18.02
2022-09-20T07:57:18.305Z,18.15
2022-09-20T07:59:46.363Z,18.24
2022-09-20T08:02:16.614Z,18.56
2022-09-20T08:04:44.790Z,18.77
2022-09-20T08:07:13.685Z,18.99
2022-09-20T08:09:41.759Z,19.13
2022-09-20T08:14:59.209Z,19.35
2022-09-20T08:17:27.253Z,19.43
2022-09-20T08:19:55.322Z,19.52
2022-09-20T08:22:24.052Z,19.41
2022-09-20T08:24:52.327Z,19.47
2022-09-20T08:27:21.811Z,19.38
2022-09-20T08:29:54.146Z,19.28
2022-09-20T08:32:22.389Z,19.24
2022-09-20T08:34:50.498Z,19.08
2022-09-20T08:37:19.331Z,19.19
2022-09-20T08:40:02.971Z,19.33
2022-09-20T08:42:34.367Z,19.50
2022-09-20T08:45:05.404Z,19.64
2022-09-20T08:47:35.925Z,19.75
2022-09-20T08:50:17.685Z,19.82
2022-09-20T08:52:47.056Z,20.00
2022-09-20T08:55:17.565Z,20.18
2022-09-20T08:57:49.958Z,20.35
2022-09-20T09:00:19.542Z,20.46
2022-09-20T09:02:49.128Z,20.63
2022-09-20T09:05:34.276Z,20.63
2022-09-20T09:08:05.431Z,20.76
2022-09-20T09:10:42.602Z,20.80
2022-09-20T09:13:27.719Z,20.83
2022-09-20T09:15:58.414Z,20.81
2022-09-20T09:18:32.441Z,20.88
2022-09-20T09:21:04.273Z,20.92
2022-09-20T09:23:50.681Z,20.92
2022-09-20T09:26:21.309Z,20.93
2022-09-20T09:29:10.848Z,20.93
2022-09-20T09:31:39.995Z,20.97
2022-09-20T09:34:38.975Z,20.99
2022-09-20T09:37:07.140Z,21.03
2022-09-20T09:39:38.382Z,20.99
2022-09-20T09:42:20.791Z,21.11
2022-09-20T09:44:50.478Z,21.18
2022-09-20T09:47:24.642Z,21.16
2022-09-20T09:50:00.845Z,21.38
2022-09-20T09:52:33.481Z,21.51
2022-09-20T09:55:05.160Z,21.62
2022-09-20T09:57:40.377Z,21.62
2022-09-20T10:00:20.346Z,21.84
2022-09-20T10:03:12.136Z,21.99
2022-09-20T10:05:44.676Z,22.06
2022-09-20T10:08:19.241Z,22.12
2022-09-20T10:10:55.304Z,22.23
2022-09-20T10:13:25.818Z,22.31
2022-09-20T10:15:57.494Z,22.30
2022-09-20T10:18:35.206Z,22.43
2022-09-20T10:21:10.118Z,22.42
2022-09-20T10:24:09.043Z,22.51
2022-09-20T10:27:07.982Z,22.57
2022-09-20T10:29:42.598Z,22.57
2022-09-20T10:32:21.173Z,22.56
2022-09-20T10:34:57.889Z,22.59
2022-09-20T10:37:29.763Z,22.70
2022-09-20T10:40:01.812Z,22.91
2022-09-20T10:42:59.837Z,23.13
2022-09-20T10:45:59.512Z,23.44
2022-09-20T10:48:22.996Z,23.65
2022-09-20T10:50:52.970Z,23.72
2022-09-20T10:53:30.583Z,23.89
2022-09-20T10:56:04.524Z,23.71
2022-09-20T10:59:09.752Z,24.05
2022-09-20T11:01:40.956Z,24.43
2022-09-20T11:04:23.010Z,24.41
2022-09-20T11:06:52.790Z,24.57
2022-09-20T11:09:22.242Z,24.80
2022-09-20T11:11:51.908Z,24.69
2022-09-20T11:14:24.800Z,24.78
2022-09-20T11:16:56.227Z,24.40
2022-09-20T11:19:27.982Z,24.35
2022-09-20T11:21:58.699Z,24.68
2022-09-20T11:24:49.915Z,24.89
2022-09-20T11:27:37.239Z,25.28
2022-09-20T11:30:23.097Z,25.52
2022-09-20T11:32:54.017Z,25.80
2022-09-20T11:35:30.720Z,25.35
2022-09-20T11:38:03.995Z,24.74
2022-09-20T11:40:34.115Z,24.04
2022-09-20T11:43:03.463Z,23.80
2022-09-20T11:45:31.713Z,23.58
2022-09-20T11:48:01.004Z,23.38
2022-09-20T11:51:00.601Z,23.19
2022-09-20T11:53:47.501Z,22.98
2022-09-20T11:56:18.393Z,22.98
2022-09-20T11:58:49.010Z,23.00
2022-09-20T12:01:18.441Z,23.03
2022-09-20T12:03:46.666Z,23.15
2022-09-20T12:06:26.814Z,23.13
2022-09-20T12:08:55.107Z,23.31
2022-09-20T12:11:29.488Z,23.38
2022-09-20T12:14:04.326Z,23.86
2022-09-20T12:16:42.581Z,24.30
2022-09-20T12:19:15.504Z,24.28
2022-09-20T12:22:27.537Z,24.25
2022-09-20T12:25:36.525Z,24.42
2022-09-20T12:28:05.454Z,24.94
2022-09-20T12:30:36.297Z,25.21
2022-09-20T12:33:26.462Z,25.43
2022-09-20T12:36:01.594Z,25.46
2022-09-20T12:38:56.364Z,25.57
2022-09-20T12:41:28.757Z,25.67
2022-09-20T12:44:03.149Z,25.74
2022-09-20T12:46:44.990Z,25.76
2022-09-20T12:49:54.249Z,26.27
2022-09-20T12:52:57.031Z,26.57
2022-09-20T12:55:55.090Z,26.90
2022-09-20T12:58:33.151Z,26.84
2022-09-20T13:01:45.253Z,26.70
2022-09-20T13:04:42.511Z,26.52
2022-09-20T13:07:50.197Z,26.40
2022-09-20T13:10:27.099Z,26.06
2022-09-20T13:13:00.372Z,25.89
2022-09-20T13:15:28.365Z,25.98
2022-09-20T13:17:57.079Z,26.15
2022-09-20T13:20:26.700Z,26.02
2022-09-20T13:22:59.546Z,26.27
2022-09-20T13:25:28.470Z,26.64
2022-09-20T13:28:08.189Z,26.87
2022-09-20T13:30:36.497Z,27.24
2022-09-20T13:33:18.951Z,27.50
2022-09-20T13:35:47.501Z,27.45
2022-09-20T13:38:22.585Z,27.53
2022-09-20T13:40:50.692Z,27.50
2022-09-20T13:43:25.564Z,27.47
2022-09-20T13:45:55.555Z,27.67
2022-09-20T13:48:26.483Z,27.66
2022-09-20T13:50:54.827Z,27.59
2022-09-20T13:53:40.525Z,27.43
2022-09-20T13:56:11.256Z,27.34
2022-09-20T13:58:40.829Z,27.44
2022-09-20T14:01:10.228Z,27.30
2022-09-20T14:03:38.847Z,27.15
2022-09-20T14:06:08.887Z,27.12
2022-09-20T14:08:38.820Z,27.03
2022-09-20T14:11:08.334Z,27.18
2022-09-20T14:13:39.125Z,26.74
2022-09-20T14:16:09.078Z,27.07
2022-09-20T14:18:37.657Z,27.11
2022-09-20T14:21:07.832Z,27.08
2022-09-20T14:23:51.053Z,27.09
2022-09-20T14:26:27.827Z,27.01
2022-09-20T14:28:56.129Z,26.96
2022-09-20T14:31:27.328Z,26.95
2022-09-20T14:33:56.592Z,27.31
2022-09-20T14:36:25.608Z,27.70
2022-09-20T14:38:54.220Z,27.91
2022-09-20T14:41:28.892Z,27.90
2022-09-20T14:43:58.257Z,27.78
2022-09-20T14:46:34.041Z,27.94
2022-09-20T14:49:21.036Z,28.02
2022-09-20T14:51:49.375Z,28.22
2022-09-20T14:54:27.948Z,28.57
2022-09-20T14:56:58.029Z,29.01
2022-09-20T14:59:26.730Z,29.08
2022-09-20T15:02:07.113Z,29.01
2022-09-20T15:04:35.794Z,29.01
2022-09-20T15:07:05.034Z,28.88
2022-09-20T15:09:33.324Z,28.74
2022-09-20T15:12:07.978Z,28.61
2022-09-20T15:14:38.181Z,28.28
2022-09-20T15:17:08.026Z,28.17
2022-09-20T15:19:36.064Z,28.37
2022-09-20T15:22:04.153Z,28.47
2022-09-20T15:24:32.288Z,28.45
2022-09-20T15:27:02.431Z,28.64
2022-09-20T15:29:31.005Z,28.69
2022-09-20T15:32:00.664Z,28.85
2022-09-20T15:34:31.413Z,28.81
2022-09-20T15:37:10.388Z,29.28
2022-09-20T15:39:38.581Z,29.28
2022-09-20T15:42:07.139Z,29.37
2022-09-20T15:44:35.754Z,29.21
2022-09-20T15:47:04.878Z,29.22
2022-09-20T15:49:34.542Z,29.39
2022-09-20T15:52:03.466Z,29.68
2022-09-20T15:54:32.526Z,29.97
2022-09-20T15:57:00.722Z,29.92
2022-09-20T15:59:29.378Z,29.98
2022-09-20T16:01:57.467Z,30.22
2022-09-20T16:04:26.936Z,30.40
2022-09-20T16:06:56.624Z,30.50
2022-09-20T16:09:24.675Z,30.73
2022-09-20T16:11:59.087Z,30.74
2022-09-20T16:14:27.483Z,30.75
2022-09-20T16:17:01.832Z,30.65
2022-09-20T16:19:30.769Z,30.78
2022-09-20T16:22:00.238Z,30.50
2022-09-20T16:24:29.281Z,30.25
2022-09-20T16:26:57.704Z,29.81
2022-09-20T16:29:26.994Z,29.98
2022-09-20T16:31:55.265Z,30.01
2022-09-20T16:34:26.333Z,30.23
2022-09-20T16:36:55.738Z,30.45
2022-09-20T16:39:26.304Z,30.81
2022-09-20T16:41:54.882Z,31.01
2022-09-20T16:44:25.100Z,31.06
2022-09-20T16:46:53.508Z,30.97
2022-09-20T16:49:21.627Z,30.89
2022-09-20T16:51:49.594Z,30.86
2022-09-20T16:54:18.025Z,30.86
2022-09-20T16:56:47.984Z,30.99
2022-09-20T16:59:17.139Z,31.06
2022-09-20T17:01:45.451Z,31.01
2022-09-20T17:04:14.306Z,31.02
2022-09-20T17:06:43.273Z,31.00
2022-09-20T17:09:11.441Z,30.97
2022-09-20T17:11:40.665Z,30.83
2022-09-20T17:14:10.325Z,30.69
2022-09-20T17:16:39.221Z,30.37
2022-09-20T17:19:08.561Z,30.08
2022-09-20T17:21:38.138Z,29.88
2022-09-20T17:24:07.139Z,29.39
2022-09-20T17:26:36.813Z,28.94
2022-09-20T17:29:06.769Z,28.40
2022-09-20T17:31:37.096Z,27.93
2022-09-20T17:34:07.228Z,27.46
2022-09-20T17:36:39.633Z,27.03
2022-09-20T17:39:10.053Z,26.67
2022-09-20T17:41:38.506Z,26.36
2022-09-20T17:44:08.396Z,26.07
2022-09-20T17:46:38.668Z,25.78
2022-09-20T17:49:07.702Z,25.49
2022-09-20T17:51:36.491Z,25.35
2022-09-20T17:54:04.730Z,25.18
2022-09-20T17:56:33.454Z,24.90
2022-09-20T17:59:02.562Z,24.50
2022-09-20T18:01:31.462Z,24.12
2022-09-20T18:04:01.573Z,23.81
2022-09-20T18:06:30.713Z,23.60
2022-09-20T18:09:01.186Z,23.22
2022-09-20T18:11:31.569Z,22.94
2022-09-20T18:13:59.916Z,22.75
2022-09-20T18:16:28.079Z,22.49
2022-09-20T18:21:26.369Z,22.11
2022-09-20T18:23:55.473Z,21.88
2022-09-20T18:26:24.187Z,21.91
2022-09-20T18:28:55.019Z,21.72
2022-09-20T18:31:23.299Z,21.61
2022-09-20T18:33:54.038Z,21.46
2022-09-20T18:36:25.637Z,21.28
2022-09-20T18:38:55.703Z,21.25
2022-09-20T18:41:27.925Z,20.97
2022-09-20T18:43:56.523Z,21.10
2022-09-20T18:46:24.877Z,20.99
2022-09-20T18:48:53.683Z,20.90
2022-09-20T18:51:21.814Z,20.82
2022-09-20T18:53:49.970Z,20.67
2022-09-20T18:56:24.109Z,20.70
2022-09-20T18:58:53.054Z,20.62
2022-09-20T19:01:32.687Z,20.50
2022-09-20T19:04:05.726Z,20.42
2022-09-20T19:06:36.745Z,20.19
2022-09-20T19:09:07.354Z,20.30
2022-09-20T19:11:38.501Z,20.17
2022-09-20T19:14:07.812Z,20.22
2022-09-20T19:16:36.939Z,20.03
2022-09-20T19:19:20.239Z,20.07
2022-09-20T19:21:56.243Z,19.86
2022-09-20T19:24:33.064Z,19.84
2022-09-20T19:27:02.999Z,19.72
2022-09-20T19:29:31.907Z,19.64
2022-09-20T19:32:00.910Z,19.58
2022-09-20T19:34:30.106Z,19.59
2022-09-20T19:37:05.848Z,19.58
2022-09-20T19:39:41.981Z,19.56
2022-09-20T19:42:14.865Z,19.51
2022-09-20T19:44:47.398Z,19.34
2022-09-20T19:47:22.002Z,19.40
2022-09-20T19:49:53.840Z,19.31
2022-09-20T19:52:22.858Z,19.25
2022-09-20T19:54:51.829Z,19.22
2022-09-20T19:57:22.754Z,19.19
2022-09-20T19:59:51.662Z,19.04
2022-09-20T20:02:19.844Z,19.14
2022-09-20T20:04:48.352Z,18.98
2022-09-20T20:07:22.823Z,19.05
2022-09-20T20:09:53.347Z,19.01
2022-09-20T20:12:25.940Z,18.93
2022-09-20T20:14:58.458Z,18.85
2022-09-20T20:17:43.407Z,18.78
2022-09-20T20:20:17.095Z,18.70
2022-09-20T20:23:04.978Z,18.52
2022-09-20T20:25:35.894Z,18.67
2022-09-20T20:28:05.314Z,18.59
2022-09-20T20:30:33.779Z,18.72
2022-09-20T20:33:04.564Z,18.74
2022-09-20T20:35:33.798Z,18.74
2022-09-20T20:38:05.934Z,18.73
2022-09-20T20:40:34.107Z,18.70
2022-09-20T20:43:02.290Z,18.67
2022-09-20T20:45:31.778Z,18.65
2022-09-20T20:48:01.360Z,18.64
2022-09-20T20:50:29.660Z,18.54
2022-09-20T20:52:57.787Z,18.62
2022-09-20T20:55:25.841Z,18.60
2022-09-20T20:57:58.402Z,18.53
2022-09-20T21:00:26.799Z,18.39
2022-09-20T21:03:00.276Z,18.29
2022-09-20T21:05:28.424Z,18.24
2022-09-20T21:07:56.439Z,18.24
2022-09-20T21:10:24.571Z,18.20
2022-09-20T21:12:55.210Z,18.11
2022-09-20T21:15:23.486Z,18.07
2022-09-20T21:17:52.370Z,18.12
2022-09-20T21:20:22.514Z,18.24
2022-09-20T21:22:50.576Z,18.24
2022-09-20T21:25:18.625Z,18.25
2022-09-20T21:27:46.754Z,18.09
2022-09-20T21:30:15.290Z,18.16
2022-09-20T21:32:43.514Z,18.21
2022-09-20T21:35:11.607Z,18.04
2022-09-20T21:37:41.297Z,18.10
2022-09-20T21:40:10.589Z,18.28
2022-09-20T21:42:38.660Z,18.35
2022-09-20T21:45:11.185Z,18.35
2022-09-20T21:47:39.324Z,18.31
2022-09-20T21:50:09.021Z,18.40
2022-09-20T21:52:37.018Z,18.39
2022-09-20T21:55:10.824Z,18.34
2022-09-20T21:57:38.973Z,18.48
2022-09-20T22:00:08.854Z,18.51
2022-09-20T22:02:40.666Z,18.50
2022-09-20T22:05:09.274Z,18.54
2022-09-20T22:07:37.286Z,18.52
2022-09-20T22:10:07.779Z,18.49
2022-09-20T22:12:35.895Z,18.41
2022-09-20T22:15:04.109Z,18.51
2022-09-20T22:17:32.283Z,18.55
2022-09-20T22:20:00.280Z,18.53
2022-09-20T22:22:29.367Z,18.46
2022-09-20T22:24:57.362Z,18.36
2022-09-20T22:27:27.062Z,18.35
2022-09-20T22:29:56.437Z,18.18
2022-09-20T22:32:24.555Z,18.22
2022-09-20T22:34:52.575Z,18.14
2022-09-20T22:37:21.119Z,18.08
2022-09-20T22:39:49.180Z,18.04
2022-09-20T22:42:17.224Z,18.00
2022-09-20T22:44:46.752Z,17.95
2022-09-20T22:47:14.780Z,17.95
2022-09-20T22:49:42.913Z,17.91
2022-09-20T22:52:10.960Z,17.86
2022-09-20T22:54:38.974Z,17.89
2022-09-20T22:57:07.025Z,17.88
2022-09-20T22:59:35.241Z,17.80
2022-09-20T23:02:04.800Z,17.74
2022-09-20T23:04:32.816Z,17.70
2022-09-20T23:07:00.878Z,17.70
2022-09-20T23:09:29.156Z,17.63
2022-09-20T23:11:57.246Z,17.63
2022-09-20T23:14:25.291Z,17.62
2022-09-20T23:16:53.446Z,17.56
2022-09-20T23:19:23.108Z,17.50
2022-09-20T23:21:51.233Z,17.41
2022-09-20T23:24:19.219Z,17.37
2022-09-20T23:26:47.871Z,17.32
2022-09-20T23:29:16.487Z,17.09
2022-09-20T23:31:46.490Z,17.21
2022-09-20T23:34:15.329Z,17.28
2022-09-20T23:36:44.745Z,17.17
2022-09-20T23:39:12.875Z,17.27
2022-09-20T23:41:41.316Z,17.34
2022-09-20T23:44:09.981Z,17.27
2022-09-20T23:46:38.383Z,17.35
2022-09-20T23:49:06.689Z,17.39
2022-09-20T23:51:35.504Z,17.28
2022-09-20T23:54:05.094Z,17.32
2022-09-20T23:56:33.795Z,17.19
2022-09-20T23:59:01.810Z,17.29
